Time;durP1;ratioP1;P1;durP2;ratioP2;P2;SDS_P1;SDS_P2;PMS_P1;PMS_P2;Temp;Humidity;BMP_temperature;BMP_pressure;BME280_temperature;BME280_humidity;BME280_pressure;Samples;Min_cycle;Max_cycle;Signal;HPM_P1;HPM_P2
2023/12/23 00:02:32;;;;;;;2.40;0.55;;;8.20;99.90;;;7.97;100.00;100363.53;5192681;28;20049;-50
2023/12/23 00:05:05;;;;;;;2.95;0.77;;;8.20;99.90;;;7.98;100.00;100366.16;5205590;28;20050;-49
2023/12/23 00:07:38;;;;;;;3.88;0.60;;;8.20;99.90;;;7.99;100.00;100380.91;5222166;28;20052;-50
2023/12/23 00:10:11;;;;;;;1.00;0.50;;;8.20;99.90;;;7.98;100.00;100384.34;5186501;28;20049;-49
2023/12/23 00:12:43;;;;;;;1.83;0.40;;;8.20;99.90;;;7.97;100.00;100387.75;5182024;28;20064;-49
2023/12/23 00:15:16;;;;;;;1.92;0.55;;;8.20;99.90;;;7.97;100.00;100381.69;5185857;28;20049;-50
2023/12/23 00:17:48;;;;;;;6.13;0.60;;;8.20;99.90;;;7.96;100.00;100380.81;5183124;28;20053;-49
2023/12/23 00:20:24;;;;;;;1.70;0.65;;;8.20;99.90;;;8.00;100.00;100387.00;5185493;28;20052;-50
2023/12/23 00:22:58;;;;;;;2.83;0.50;;;8.30;99.90;;;7.99;100.00;100374.84;5203932;28;20052;-50
2023/12/23 00:25:30;;;;;;;1.50;0.52;;;8.20;99.90;;;8.00;100.00;100389.59;5181608;28;20145;-50
2023/12/23 00:28:03;;;;;;;1.45;0.52;;;8.20;99.90;;;8.01;100.00;100378.38;5203305;28;20049;-49
2023/12/23 00:30:35;;;;;;;3.97;0.63;;;8.20;99.90;;;8.01;100.00;100386.16;5184101;28;20446;-50
2023/12/23 00:33:08;;;;;;;1.98;0.70;;;8.20;99.90;;;8.00;100.00;100392.19;5204591;28;20072;-49
2023/12/23 00:35:41;;;;;;;1.85;0.50;;;8.20;99.90;;;8.03;100.00;100397.50;5181822;28;20518;-49
2023/12/23 00:38:15;;;;;;;1.58;0.40;;;8.20;99.90;;;8.03;100.00;100389.72;5179491;28;20569;-50
2023/12/23 00:40:47;;;;;;;0.75;0.38;;;8.30;99.90;;;8.03;100.00;100395.78;5197850;28;20056;-51
2023/12/23 00:43:21;;;;;;;3.97;0.52;;;8.30;99.90;;;8.04;100.00;100392.38;5197634;28;20049;-50
2023/12/23 00:45:55;;;;;;;1.30;0.57;;;8.30;99.90;;;8.06;100.00;100397.59;5179522;28;20085;-50
2023/12/23 00:48:28;;;;;;;1.92;0.77;;;8.20;99.90;;;8.04;100.00;100394.97;5211069;28;20053;-50
2023/12/23 00:51:00;;;;;;;1.08;0.63;;;8.20;99.90;;;8.02;100.00;100404.41;5176898;28;20042;-50
2023/12/23 00:53:34;;;;;;;1.13;0.63;;;8.20;99.90;;;8.01;100.00;100414.72;5176739;28;20049;-57
2023/12/23 00:56:07;;;;;;;2.78;0.60;;;8.20;99.90;;;8.03;100.00;100410.47;5179601;28;20045;-50
2023/12/23 00:58:43;;;;;;;2.38;0.70;;;8.20;99.90;;;8.02;100.00;100408.69;5184063;28;20041;-49
2023/12/23 01:01:15;;;;;;;1.15;0.50;;;8.20;99.90;;;8.01;100.00;100394.81;5198517;28;20046;-48
2023/12/23 01:03:48;;;;;;;1.65;0.80;;;8.20;99.90;;;8.01;100.00;100386.16;5195506;28;20563;-48
2023/12/23 01:06:21;;;;;;;2.55;0.70;;;8.20;99.90;;;8.02;100.00;100396.63;5181953;28;20048;-49
2023/12/23 01:08:55;;;;;;;2.53;0.75;;;8.20;99.90;;;8.02;100.00;100387.91;5182493;28;20067;-50
2023/12/23 01:11:27;;;;;;;3.25;0.55;;;8.20;99.90;;;8.03;100.00;100407.88;5180468;28;20065;-50
2023/12/23 01:14:00;;;;;;;3.17;0.60;;;8.20;99.90;;;8.02;100.00;100395.72;5197964;28;20050;-50
2023/12/23 01:16:35;;;;;;;2.30;0.73;;;8.20;99.90;;;8.02;100.00;100390.50;5196541;28;20056;-50
2023/12/23 01:19:08;;;;;;;2.03;0.60;;;8.20;99.90;;;8.01;100.00;100384.44;5184698;28;20413;-49
2023/12/23 01:21:40;;;;;;;1.15;0.55;;;8.20;99.90;;;8.02;100.00;100395.72;5184960;28;20042;-49
2023/12/23 01:24:14;;;;;;;1.33;0.52;;;8.20;99.90;;;8.04;100.00;100409.66;5182070;28;20527;-49
2023/12/23 01:26:46;;;;;;;2.38;0.50;;;8.20;99.90;;;8.01;100.00;100401.72;5184300;28;20060;-49
2023/12/23 01:29:19;;;;;;;1.45;0.50;;;8.20;99.90;;;8.01;100.00;100399.13;5184878;28;20092;-49
2023/12/23 01:31:51;;;;;;;2.92;0.52;;;8.20;99.90;;;8.02;100.00;100403.50;5190297;28;20046;-47
2023/12/23 01:34:23;;;;;;;3.70;0.50;;;8.20;99.90;;;8.01;100.00;100420.78;5219752;28;20053;-49
2023/12/23 01:36:56;;;;;;;3.33;0.50;;;8.10;99.90;;;8.00;100.00;100408.63;5201416;28;20049;-48
2023/12/23 01:39:30;;;;;;;2.05;0.55;;;8.20;99.90;;;8.01;100.00;100410.41;5202938;28;20045;-48
2023/12/23 01:42:03;;;;;;;2.22;0.85;;;8.20;99.90;;;8.00;100.00;100399.97;5200105;28;20045;-49
2023/12/23 01:44:35;;;;;;;1.83;0.40;;;8.20;99.90;;;7.96;100.00;100400.69;5178900;28;20509;-48
2023/12/23 01:47:08;;;;;;;2.22;0.70;;;8.10;99.90;;;7.94;100.00;100398.00;5201601;28;20045;-48
2023/12/23 01:49:42;;;;;;;1.92;0.55;;;8.10;99.90;;;7.95;100.00;100396.28;5210895;28;20532;-49
2023/12/23 01:52:15;;;;;;;3.15;0.90;;;8.10;99.90;;;7.96;100.00;100405.88;5216463;28;20581;-49
2023/12/23 01:54:52;;;;;;;0.70;0.50;;;8.10;99.90;;;7.97;100.00;100408.53;5180324;28;20069;-48
2023/12/23 01:57:25;;;;;;;0.98;0.65;;;8.10;99.90;;;7.97;100.00;100403.34;5174223;28;20681;-49
2023/12/23 01:59:58;;;;;;;1.17;0.30;;;8.10;99.90;;;8.00;100.00;100397.38;5198244;28;20416;-48
2023/12/23 02:02:38;;;;;;;1.38;0.63;;;8.20;99.90;;;8.01;100.00;100407.81;5176050;28;20048;-48
2023/12/23 02:05:11;;;;;;;1.15;0.60;;;8.20;99.90;;;8.03;100.00;100403.59;5196143;28;20528;-48
2023/12/23 02:07:45;;;;;;;2.53;0.68;;;8.20;99.90;;;8.03;100.00;100415.69;5216573;28;20042;-49
2023/12/23 02:10:19;;;;;;;3.22;0.52;;;8.20;99.90;;;8.02;100.00;100406.09;5203388;28;20056;-49
2023/12/23 02:13:03;;;;;;;2.28;0.63;;;8.20;99.90;;;8.01;100.00;100405.22;5218987;28;20652;-49
2023/12/23 02:15:38;;;;;;;1.38;0.68;;;8.20;99.90;;;8.03;100.00;100398.38;5197216;28;20049;-50
2023/12/23 02:18:11;;;;;;;2.72;0.60;;;8.10;99.90;;;8.05;100.00;100398.44;5202433;28;20536;-49
2023/12/23 02:20:48;;;;;;;0.32;0.32;;;8.20;99.90;;;8.08;100.00;100385.56;5204678;28;20132;-49
2023/12/23 02:23:20;;;;;;;2.47;0.63;;;8.20;99.90;;;8.07;100.00;100394.19;5187485;28;20156;-51
2023/12/23 02:26:01;;;;;;;3.00;0.52;;;8.20;99.90;;;8.05;100.00;100382.88;5208009;28;20048;-48
2023/12/23 02:28:35;;;;;;;0.70;0.50;;;8.20;99.90;;;8.06;100.00;100382.03;5225182;28;20050;-49
2023/12/23 02:31:11;;;;;;;2.38;0.40;;;8.20;99.90;;;8.10;100.00;100381.34;5201361;28;20096;-48
2023/12/23 02:33:44;;;;;;;1.83;0.55;;;8.20;99.90;;;8.12;100.00;100384.88;5201498;28;20056;-49
2023/12/23 02:36:22;;;;;;;1.70;0.68;;;8.30;99.90;;;8.15;100.00;100377.22;5220277;28;20041;-48
2023/12/23 02:38:55;;;;;;;1.52;0.57;;;8.30;99.90;;;8.18;100.00;100377.31;5189137;28;20049;-48
2023/12/23 02:41:28;;;;;;;2.75;0.60;;;8.30;99.90;;;8.21;100.00;100372.22;5196614;28;20054;-48
2023/12/23 02:44:00;;;;;;;1.45;0.70;;;8.30;99.90;;;8.23;100.00;100365.38;5187597;28;20056;-48
2023/12/23 02:46:33;;;;;;;1.35;0.50;;;8.30;99.90;;;8.25;100.00;100363.72;5190677;28;20054;-49
2023/12/23 02:49:05;;;;;;;0.80;0.55;;;8.30;99.90;;;8.29;100.00;100350.03;5203520;28;20038;-49
2023/12/23 02:51:39;;;;;;;1.67;1.10;;;8.40;99.90;;;8.30;100.00;100341.41;5186788;28;20416;-48
2023/12/23 02:54:11;;;;;;;2.78;1.17;;;8.40;99.90;;;8.33;100.00;100336.31;5200548;28;20042;-49
2023/12/23 02:56:44;;;;;;;2.53;1.15;;;8.40;99.90;;;8.36;100.00;100346.88;5217055;28;20050;-49
2023/12/23 02:59:16;;;;;;;1.35;1.13;;;8.50;99.90;;;8.38;100.00;100340.00;5203719;28;20053;-50
2023/12/23 03:01:49;;;;;;;2.65;1.30;;;8.50;99.90;;;8.41;100.00;100329.75;5202983;28;20049;-49
2023/12/23 03:04:21;;;;;;;1.88;1.23;;;8.50;99.90;;;8.46;100.00;100332.50;5203044;28;20049;-49
2023/12/23 03:06:58;;;;;;;2.97;1.00;;;8.50;99.90;;;8.51;100.00;100330.94;5205356;28;20049;-48
2023/12/23 03:09:31;;;;;;;1.20;0.77;;;8.60;99.90;;;8.56;100.00;100323.31;5220323;28;20045;-49
2023/12/23 03:12:03;;;;;;;5.80;1.60;;;8.60;99.90;;;8.59;100.00;100318.22;5203565;28;20420;-49
2023/12/23 03:14:36;;;;;;;4.93;1.70;;;8.70;99.90;;;8.61;100.00;100321.78;5189241;28;20053;-49
2023/12/23 03:17:08;;;;;;;4.18;2.13;;;8.70;99.90;;;8.64;100.00;100324.47;5188630;28;20053;-48
2023/12/23 03:19:42;;;;;;;8.40;2.95;;;8.70;99.90;;;8.67;100.00;100320.28;5204396;28;20041;-49
2023/12/23 03:22:16;;;;;;;5.70;2.53;;;8.80;99.90;;;8.74;100.00;100305.78;5201475;28;20575;-51
2023/12/23 03:24:51;;;;;;;13.65;3.30;;;8.80;99.90;;;8.79;100.00;100303.31;5183966;28;20053;-50
2023/12/23 03:27:24;;;;;;;5.25;2.83;;;8.90;99.90;;;8.85;100.00;100286.22;5188311;28;20053;-49
2023/12/23 03:29:56;;;;;;;6.90;2.92;;;8.90;99.90;;;8.88;100.00;100294.13;5215348;28;20049;-48
2023/12/23 03:32:28;;;;;;;8.32;2.92;;;9.00;99.90;;;8.91;100.00;100289.03;5204602;28;20049;-50
2023/12/23 03:35:01;;;;;;;7.18;3.13;;;9.00;99.90;;;8.92;100.00;100298.56;5190718;28;20508;-49
2023/12/23 03:37:34;;;;;;;10.35;3.05;;;9.10;99.90;;;8.95;100.00;100300.41;5186651;28;20606;-49
2023/12/23 03:40:08;;;;;;;9.48;2.75;;;9.10;99.90;;;8.97;100.00;100286.63;5201763;28;20049;-48
2023/12/23 03:42:44;;;;;;;7.63;3.30;;;9.10;99.90;;;8.98;100.00;100272.78;5197253;28;20126;-49
2023/12/23 03:45:17;;;;;;;6.05;3.00;;;9.10;99.90;;;9.00;100.00;100271.94;5183302;28;20512;-50
2023/12/23 03:47:49;;;;;;;7.03;2.70;;;9.10;99.90;;;9.01;100.00;100276.34;5195066;28;20433;-48
2023/12/23 03:50:22;;;;;;;8.75;2.83;;;9.10;99.90;;;9.01;100.00;100273.75;5187612;28;20056;-49
2023/12/23 03:52:56;;;;;;;5.60;2.05;;;9.20;99.90;;;9.04;100.00;100268.63;5184146;28;20435;-49
2023/12/23 03:55:32;;;;;;;8.98;2.42;;;9.10;99.90;;;9.05;100.00;100262.59;5185684;28;20600;-49
2023/12/23 03:58:05;;;;;;;7.05;2.78;;;9.10;99.90;;;9.06;100.00;100259.16;5178675;28;20509;-48
2023/12/23 04:00:37;;;;;;;7.20;2.17;;;9.20;99.90;;;9.05;100.00;100266.06;5183689;28;20501;-50
2023/12/23 04:03:10;;;;;;;5.38;2.42;;;9.20;99.90;;;9.07;100.00;100255.75;5197478;28;20501;-50
2023/12/23 04:05:42;;;;;;;6.10;2.65;;;9.20;99.90;;;9.07;100.00;100266.16;5178485;28;20045;-49
2023/12/23 04:08:17;;;;;;;5.88;2.55;;;9.20;99.90;;;9.08;100.00;100275.72;5200931;28;20041;-50
2023/12/23 04:10:52;;;;;;;7.18;2.63;;;9.20;99.90;;;9.10;100.00;100271.44;5211777;28;20535;-49
2023/12/23 04:13:25;;;;;;;7.15;2.85;;;9.20;99.90;;;9.09;100.00;100274.88;5176117;28;20088;-49
2023/12/23 04:15:58;;;;;;;5.35;2.55;;;9.20;99.90;;;9.10;100.00;100276.63;5199677;28;20045;-49
2023/12/23 04:18:30;;;;;;;10.13;2.92;;;9.20;99.90;;;9.08;100.00;100273.09;5194332;28;20148;-49
2023/12/23 04:21:04;;;;;;;6.13;2.33;;;9.20;99.90;;;9.09;100.00;100269.66;5202555;28;20056;-49
2023/12/23 04:23:38;;;;;;;9.93;3.15;;;9.20;99.90;;;9.08;100.00;100254.91;5200743;28;20045;-50
2023/12/23 04:26:14;;;;;;;4.40;2.17;;;9.20;99.90;;;9.06;100.00;100256.56;5199960;28;20496;-49
2023/12/23 04:28:46;;;;;;;8.80;2.72;;;9.20;99.90;;;9.07;100.00;100259.22;5180796;28;20073;-50
2023/12/23 04:31:19;;;;;;;8.30;2.38;;;9.20;99.90;;;9.07;100.00;100251.44;5194114;28;20079;-48
2023/12/23 04:33:51;;;;;;;5.25;2.45;;;9.20;99.90;;;9.09;100.00;100247.16;5175979;28;20041;-48
2023/12/23 04:36:24;;;;;;;7.63;2.30;;;9.20;99.90;;;9.11;100.00;100249.78;5200508;28;20099;-49
2023/12/23 04:39:04;;;;;;;6.57;2.33;;;9.20;99.90;;;9.11;100.00;100252.38;5184564;28;20476;-49
2023/12/23 04:41:36;;;;;;;5.22;2.50;;;9.20;99.90;;;9.12;100.00;100235.94;5194197;28;20050;-48
2023/12/23 04:44:09;;;;;;;6.72;2.53;;;9.20;99.90;;;9.11;100.00;100253.28;5184989;28;20696;-48
2023/12/23 04:46:41;;;;;;;3.72;2.28;;;9.20;99.90;;;9.10;100.00;100245.44;5182873;28;20041;-48
2023/12/23 04:49:14;;;;;;;7.13;2.45;;;9.20;99.90;;;9.11;100.00;100250.66;5195925;28;20053;-49
2023/12/23 04:51:46;;;;;;;5.30;1.83;;;9.30;99.90;;;9.11;100.00;100247.19;5199433;28;20053;-48
2023/12/23 04:54:20;;;;;;;3.72;2.00;;;9.20;99.90;;;9.08;100.00;100249.72;5200625;28;20049;-49
2023/12/23 04:56:52;;;;;;;7.72;2.22;;;9.20;99.90;;;9.08;100.00;100242.78;5181975;28;20555;-48
2023/12/23 04:59:25;;;;;;;5.20;2.90;;;9.20;99.90;;;9.07;100.00;100240.16;5202474;28;20538;-54
2023/12/23 05:01:58;;;;;;;5.47;2.10;;;9.20;99.90;;;9.11;100.00;100236.78;5182383;28;20523;-49
2023/12/23 05:04:30;;;;;;;5.57;1.77;;;9.20;99.90;;;9.09;100.00;100233.28;5180775;28;20045;-49
2023/12/23 05:07:02;;;;;;;8.48;1.45;;;9.20;99.90;;;9.07;100.00;100227.16;5201066;28;20053;-48
2023/12/23 05:09:36;;;;;;;4.25;1.83;;;9.20;99.90;;;9.08;100.00;100211.59;5197988;28;20050;-49
2023/12/23 05:12:09;;;;;;;8.90;1.85;;;9.20;99.90;;;9.11;100.00;100218.59;5215219;28;20044;-49
2023/12/23 05:14:42;;;;;;;6.68;2.30;;;9.20;99.90;;;9.11;100.00;100216.00;5181505;28;20052;-49
2023/12/23 05:17:14;;;;;;;5.97;1.40;;;9.20;99.90;;;9.11;100.00;100216.00;5197697;28;20053;-48
2023/12/23 05:19:48;;;;;;;4.32;1.40;;;9.20;99.90;;;9.15;100.00;100217.88;5178793;28;20053;-49
2023/12/23 05:22:20;;;;;;;5.68;1.98;;;9.20;99.90;;;9.15;100.00;100217.88;5199556;28;20132;-49
2023/12/23 05:24:57;;;;;;;2.17;1.15;;;9.30;99.90;;;9.19;100.00;100223.22;5184594;28;20424;-48
2023/12/23 05:27:30;;;;;;;4.63;1.52;;;9.30;99.90;;;9.18;100.00;100228.34;5192431;28;20045;-50
2023/12/23 05:30:03;;;;;;;3.30;1.23;;;9.30;99.90;;;9.17;100.00;100213.59;5197754;28;20046;-49
2023/12/23 05:32:35;;;;;;;5.55;1.02;;;9.30;99.90;;;9.17;100.00;100221.38;5179226;28;20055;-49
2023/12/23 05:35:08;;;;;;;2.80;1.20;;;9.30;99.90;;;9.17;100.00;100218.78;5178557;28;20045;-47
2023/12/23 05:37:40;;;;;;;6.85;1.60;;;9.30;99.90;;;9.15;100.00;100207.47;5217541;28;20061;-48
2023/12/23 05:40:15;;;;;;;9.45;1.40;;;9.30;99.90;;;9.16;100.00;100210.09;5199063;28;20056;-49
2023/12/23 05:42:47;;;;;;;7.63;1.27;;;9.30;99.90;;;9.17;100.00;100205.78;5181587;28;20103;-49
2023/12/23 05:45:22;;;;;;;4.93;1.48;;;9.30;99.90;;;9.20;100.00;100198.09;5181549;28;20535;-49
2023/12/23 05:47:55;;;;;;;6.43;1.42;;;9.30;99.90;;;9.18;100.00;100208.41;5181826;28;20057;-49
2023/12/23 05:50:27;;;;;;;5.80;1.73;;;9.40;99.90;;;9.19;100.00;100196.31;5209202;28;20386;-50
2023/12/23 05:53:00;;;;;;;5.80;1.52;;;9.30;99.90;;;9.19;100.00;100184.22;5176365;28;20079;-49
2023/12/23 05:55:33;;;;;;;4.03;1.80;;;9.30;99.90;;;9.23;100.00;100201.66;5207330;28;20060;-49
2023/12/23 05:58:06;;;;;;;3.25;2.05;;;9.30;99.90;;;9.23;100.00;100198.16;5184118;28;20052;-48
2023/12/23 06:00:38;;;;;;;3.25;1.30;;;9.40;99.90;;;9.22;100.00;100199.91;5184632;28;20140;-48
2023/12/23 06:03:10;;;;;;;4.65;1.33;;;9.40;99.90;;;9.24;100.00;100205.13;5181562;28;20401;-48
2023/12/23 06:05:43;;;;;;;3.95;1.52;;;9.40;99.90;;;9.27;100.00;100187.03;5186414;28;20515;-48
2023/12/23 06:08:15;;;;;;;3.13;1.20;;;9.40;99.90;;;9.27;100.00;100186.16;5202877;28;20152;-49
2023/12/23 06:10:49;;;;;;;3.55;1.35;;;9.40;99.90;;;9.30;100.00;100176.72;5211385;28;20054;-49
2023/12/23 06:13:22;;;;;;;2.17;1.23;;;9.40;99.90;;;9.31;100.00;100183.69;5202785;28;20052;-49
2023/12/23 06:15:54;;;;;;;6.22;1.60;;;9.40;99.90;;;9.34;100.00;100191.59;5183296;28;20424;-49
2023/12/23 06:18:26;;;;;;;6.43;1.30;;;9.50;99.90;;;9.32;100.00;100195.84;5183630;28;20132;-50
2023/12/23 06:20:59;;;;;;;4.60;1.40;;;9.40;99.90;;;9.35;100.00;100201.16;5185485;28;20060;-49
2023/12/23 06:23:31;;;;;;;3.45;1.10;;;9.50;99.90;;;9.32;100.00;100210.56;5195642;28;20049;-50
2023/12/23 06:26:05;;;;;;;5.45;1.40;;;9.40;99.90;;;9.32;100.00;100200.16;5184459;28;20119;-48
2023/12/23 06:28:38;;;;;;;4.85;1.55;;;9.40;99.90;;;9.31;100.00;100207.09;5187971;28;20065;-48
2023/12/23 06:31:10;;;;;;;3.97;1.50;;;9.50;99.90;;;9.33;100.00;100221.03;5183087;28;20045;-49
2023/12/23 06:33:42;;;;;;;3.58;1.77;;;9.50;99.90;;;9.35;100.00;100190.75;5201984;28;20509;-50
2023/12/23 06:36:15;;;;;;;3.95;1.60;;;9.50;99.90;;;9.39;100.00;100213.44;5187214;28;20135;-49
2023/12/23 06:38:48;;;;;;;4.28;1.45;;;9.50;99.90;;;9.40;100.00;100206.50;5216420;28;20060;-48
2023/12/23 06:41:22;;;;;;;2.78;1.40;;;9.50;99.90;;;9.38;100.00;100227.25;5186693;28;20534;-49
2023/12/23 06:43:54;;;;;;;3.83;1.25;;;9.50;99.90;;;9.38;100.00;100222.03;5185544;28;20096;-48
2023/12/23 06:46:26;;;;;;;5.57;1.50;;;9.50;99.90;;;9.39;100.00;100222.91;5202481;28;20398;-48
2023/12/23 06:48:59;;;;;;;4.30;1.33;;;9.50;99.90;;;9.33;100.00;100221.03;5187340;28;20516;-48
2023/12/23 06:51:31;;;;;;;3.67;1.20;;;9.50;99.90;;;9.32;100.00;100216.66;5178521;28;20057;-49
2023/12/23 06:54:04;;;;;;;2.95;1.40;;;9.50;99.90;;;9.30;100.00;100222.66;5181378;28;20474;-49
2023/12/23 06:56:38;;;;;;;3.85;1.42;;;9.40;99.90;;;9.26;100.00;100221.69;5182505;28;20045;-49
2023/12/23 06:59:12;;;;;;;2.97;1.40;;;9.40;99.90;;;9.28;100.00;100222.59;5199370;28;20046;-48
2023/12/23 07:01:45;;;;;;;5.13;1.52;;;9.40;99.90;;;9.23;100.00;100212.06;5181707;28;20516;-48
2023/12/23 07:04:17;;;;;;;3.40;1.50;;;9.40;99.90;;;9.22;100.00;100212.00;5184248;28;20420;-48
2023/12/23 07:06:50;;;;;;;3.30;1.65;;;9.40;99.90;;;9.25;100.00;100193.88;5202585;28;20046;-49
2023/12/23 07:09:25;;;;;;;3.72;1.73;;;9.40;99.90;;;9.26;100.00;100216.50;5205883;28;20045;-50
2023/12/23 07:11:59;;;;;;;2.40;1.30;;;9.40;99.90;;;9.30;100.00;100210.53;5187573;28;20045;-49
2023/12/23 07:14:31;;;;;;;3.08;1.20;;;9.40;99.90;;;9.28;100.00;100209.59;5181388;28;20136;-50
2023/12/23 07:17:04;;;;;;;5.07;1.38;;;9.40;99.90;;;9.26;100.00;100195.69;5185646;28;20505;-51
2023/12/23 07:19:37;;;;;;;1.63;0.85;;;9.40;99.90;;;9.29;100.00;100211.38;5185683;28;20049;-50
2023/12/23 07:22:09;;;;;;;3.50;1.20;;;9.40;99.90;;;9.30;100.00;100215.72;5215405;28;20045;-49
2023/12/23 07:24:41;;;;;;;2.83;1.13;;;9.40;99.90;;;9.31;100.00;100214.00;5202630;28;20041;-49
2023/12/23 07:27:15;;;;;;;4.10;1.30;;;9.40;99.90;;;9.32;100.00;100211.44;5202564;28;20053;-48
2023/12/23 07:29:49;;;;;;;4.57;1.13;;;9.50;99.90;;;9.34;100.00;100208.91;5200552;28;20049;-48
2023/12/23 07:32:21;;;;;;;6.18;1.48;;;9.40;99.90;;;9.33;100.00;100201.94;5184958;28;20084;-49
2023/12/23 07:34:54;;;;;;;2.42;1.30;;;9.40;99.90;;;9.35;100.00;100203.75;5216671;28;20793;-49
2023/12/23 07:37:26;;;;;;;4.07;1.20;;;9.40;99.90;;;9.34;100.00;100202.00;5203116;28;20072;-49
2023/12/23 07:39:58;;;;;;;3.05;1.38;;;9.50;99.90;;;9.34;100.00;100194.19;5208362;28;20140;-48
2023/12/23 07:42:32;;;;;;;3.75;1.38;;;9.40;99.90;;;9.32;100.00;100201.03;5180912;28;20443;-49
2023/12/23 07:45:06;;;;;;;5.30;1.80;;;9.40;99.90;;;9.34;100.00;100209.78;5200775;28;20421;-49
2023/12/23 07:47:38;;;;;;;5.30;1.73;;;9.50;99.90;;;9.32;100.00;100193.25;5187288;28;20513;-50
2023/12/23 07:50:11;;;;;;;3.90;1.85;;;9.40;99.90;;;9.33;100.00;100204.56;5184353;28;20049;-50
2023/12/23 07:52:44;;;;;;;4.95;1.73;;;9.40;99.90;;;9.31;100.00;100193.19;5200398;28;20042;-50
2023/12/23 07:55:19;;;;;;;6.30;2.35;;;9.40;99.90;;;9.29;100.00;100206.16;5202775;28;20048;-49
2023/12/23 07:57:53;;;;;;;3.83;1.58;;;9.40;99.90;;;9.30;100.00;100204.44;5182823;28;20057;-49
2023/12/23 08:00:25;;;;;;;7.05;1.75;;;9.40;99.90;;;9.31;100.00;100198.41;5204125;28;20049;-49
2023/12/23 08:02:57;;;;;;;5.38;1.85;;;9.40;99.90;;;9.42;100.00;100192.69;5182356;28;20053;-49
2023/12/23 08:05:34;;;;;;;3.90;1.33;;;9.50;99.90;;;9.42;100.00;100212.63;5194374;28;20049;-49
2023/12/23 08:08:09;;;;;;;4.88;1.70;;;9.50;99.90;;;9.38;100.00;100216.84;5184284;28;20046;-49
2023/12/23 08:10:42;;;;;;;5.30;1.75;;;9.50;99.90;;;9.35;100.00;100206.34;5185710;28;20053;-50
2023/12/23 08:13:16;;;;;;;4.80;1.77;;;9.50;99.90;;;9.34;100.00;100216.72;5203020;28;20048;-49
2023/12/23 08:15:48;;;;;;;6.55;1.65;;;9.50;99.90;;;9.34;100.00;100211.50;5185263;28;20049;-49
2023/12/23 08:18:20;;;;;;;6.82;2.28;;;9.50;99.90;;;9.33;100.00;100228.84;5183251;28;20064;-49
2023/12/23 08:20:53;;;;;;;2.80;1.52;;;9.40;99.90;;;9.32;100.00;100227.06;5184038;28;20053;-49
2023/12/23 08:23:28;;;;;;;4.03;1.52;;;9.50;99.90;;;9.34;100.00;100224.53;5201498;28;20045;-50
2023/12/23 08:26:01;;;;;;;5.35;1.65;;;9.50;99.90;;;9.38;100.00;100222.03;5206960;28;20057;-49
2023/12/23 08:28:34;;;;;;;4.55;1.60;;;9.50;99.90;;;9.38;100.00;100222.03;5182955;28;20053;-49
2023/12/23 08:31:07;;;;;;;7.05;1.98;;;9.50;99.90;;;9.41;100.00;100231.66;5197213;28;20073;-49
2023/12/23 08:33:39;;;;;;;3.42;1.83;;;9.50;99.90;;;9.47;100.00;100227.53;5179465;28;20053;-49
2023/12/23 08:36:11;;;;;;;7.55;1.88;;;9.50;99.90;;;9.50;100.00;100216.31;5200174;28;20527;-49
2023/12/23 08:38:44;;;;;;;4.32;1.65;;;9.60;99.90;;;9.47;100.00;100217.13;5178211;28;20050;-49
2023/12/23 08:41:16;;;;;;;4.72;1.85;;;9.60;99.90;;;9.49;100.00;100222.38;5197173;28;20386;-49
2023/12/23 08:43:50;;;;;;;6.20;1.90;;;9.60;99.90;;;9.64;100.00;100219.34;5178041;28;20041;-50
2023/12/23 08:46:23;;;;;;;;;;;9.60;99.90;;;9.83;100.00;100205.13;5179784;28;20052;-49
2023/12/23 08:48:55;;;;;;;6.70;2.10;;;9.80;99.90;;;9.81;100.00;100210.31;5178649;28;20388;-49
2023/12/23 08:51:31;;;;;;;5.18;1.80;;;9.90;99.90;;;9.77;100.00;100226.66;5201388;28;20049;-48
2023/12/23 08:54:04;;;;;;;7.43;1.90;;;9.90;99.90;;;9.71;100.00;100224.75;5169657;28;20528;-51
2023/12/23 08:56:36;;;;;;;5.40;1.90;;;9.80;99.90;;;9.67;100.00;100220.31;5179615;28;20042;-48
2023/12/23 08:59:10;;;;;;;7.45;2.55;;;9.80;99.90;;;9.69;100.00;100212.53;5179135;28;20052;-49
2023/12/23 09:01:43;;;;;;;5.70;2.13;;;9.80;99.90;;;9.72;100.00;100215.25;5192221;28;20061;-48
2023/12/23 09:04:17;;;;;;;8.07;1.95;;;9.80;99.90;;;9.72;100.00;100215.25;5196479;28;20037;-49
2023/12/23 09:06:50;;;;;;;6.93;2.45;;;9.80;99.90;;;9.72;100.00;100217.84;5169644;28;20056;-49
2023/12/23 09:09:25;;;;;;;5.65;1.88;;;9.80;99.90;;;9.72;100.00;100212.66;5194778;28;20521;-49
2023/12/23 09:11:58;;;;;;;7.05;2.03;;;9.80;99.90;;;9.74;100.00;100216.19;5192068;28;20041;-49
2023/12/23 09:14:32;;;;;;;5.57;1.75;;;9.80;99.90;;;9.74;100.00;100209.25;5172939;28;20072;-49
2023/12/23 09:17:05;;;;;;;6.38;2.20;;;9.80;99.90;;;9.75;100.00;100221.41;5212955;28;20513;-49
2023/12/23 09:19:38;;;;;;;7.68;2.15;;;9.90;99.90;;;9.79;100.00;100246.72;5178086;28;20136;-49
2023/12/23 09:22:10;;;;;;;6.82;1.98;;;9.90;99.90;;;9.82;100.00;100240.69;5175217;28;20053;-49
2023/12/23 09:24:45;;;;;;;7.35;2.75;;;9.90;99.90;;;9.98;100.00;100242.91;5182143;28;20049;-48
2023/12/23 09:27:17;;;;;;;9.27;1.90;;;10.00;99.90;;;9.99;100.00;100244.69;5176313;28;20159;-50
2023/12/23 09:29:51;;;;;;;8.07;2.28;;;10.00;99.90;;;9.99;100.00;100255.09;5193694;28;20095;-49
2023/12/23 09:32:23;;;;;;;4.18;1.67;;;10.10;99.90;;;10.00;100.00;100262.06;5189626;28;20056;-49
2023/12/23 09:34:56;;;;;;;8.30;1.67;;;10.10;99.90;;;10.00;100.00;100245.56;5171479;28;20069;-49
2023/12/23 09:37:28;;;;;;;7.70;2.97;;;10.10;99.90;;;10.01;100.00;100263.81;5194899;28;20050;-48
2023/12/23 09:40:01;;;;;;;9.07;1.85;;;10.10;99.90;;;10.03;100.00;100256.91;5179245;28;20053;-49
2023/12/23 09:42:34;;;;;;;5.50;1.85;;;10.10;99.90;;;10.04;100.00;100258.72;5177711;28;20526;-49
2023/12/23 09:45:09;;;;;;;3.90;1.80;;;10.10;99.90;;;10.05;100.00;100270.88;5197673;28;20048;-49
2023/12/23 09:47:41;;;;;;;;;;;10.10;99.90;;;10.06;100.00;100272.66;5212091;28;20049;-48
2023/12/23 09:50:13;;;;;;;6.47;1.67;;;10.10;99.90;;;10.06;100.00;100266.56;5182640;28;20281;-49
2023/12/23 09:52:51;;;;;;;6.13;2.10;;;10.10;99.90;;;10.07;100.00;100269.19;5173579;28;20061;-49
2023/12/23 09:55:25;;;;;;;7.43;2.33;;;10.10;99.90;;;10.05;100.00;100272.63;5178785;28;20168;-49
2023/12/23 09:57:58;;;;;;;8.55;2.40;;;10.10;99.90;;;10.07;100.00;100263.13;5178197;28;20077;-50
2023/12/23 10:00:31;;;;;;;8.27;2.35;;;10.10;99.90;;;10.04;100.00;100269.13;5177265;28;20049;-49
2023/12/23 10:03:04;;;;;;;9.05;2.38;;;10.10;99.90;;;10.11;100.00;100271.91;5182571;28;20049;-49
2023/12/23 10:05:43;;;;;;;3.63;2.00;;;10.10;99.90;;;10.09;100.00;100277.06;5210165;28;20041;-49
2023/12/23 10:08:15;;;;;;;7.90;2.03;;;10.20;99.90;;;10.09;100.00;100284.88;5191138;28;20056;-52
2023/12/23 10:10:47;;;;;;;4.78;1.90;;;10.20;99.90;;;10.15;100.00;100279.81;5196389;28;20050;-49
2023/12/23 10:17:17;;;;;;;7.70;2.67;;;10.20;99.90;;;10.14;100.00;100280.69;6127732;23;20034;-80
2023/12/23 10:19:52;;;;;;;5.32;1.67;;;10.20;99.90;;;10.18;100.00;100279.06;5105560;29;20081;-81
2023/12/23 10:22:27;;;;;;;6.00;1.83;;;10.20;99.90;;;10.14;100.00;100282.41;5097108;29;20114;-82
2023/12/23 10:27:12;;;;;;;4.38;1.80;;;10.20;99.90;;;10.14;100.00;100287.59;5351173;27;21326;-49
2023/12/23 10:29:49;;;;;;;3.85;2.08;;;10.20;99.90;;;10.15;100.00;100298.06;5329451;27;20039;-49
2023/12/23 10:32:25;;;;;;;5.75;1.80;;;10.20;99.90;;;10.09;100.00;100287.47;5312497;27;20051;-50
2023/12/23 10:35:02;;;;;;;7.28;1.98;;;10.20;99.90;;;10.06;100.00;100287.41;5315274;27;20138;-49
2023/12/23 10:37:35;;;;;;;11.57;1.90;;;10.10;99.90;;;10.00;100.00;100285.50;5314655;27;20074;-49
2023/12/23 10:40:17;;;;;;;4.53;1.63;;;10.10;99.90;;;10.12;100.00;100299.72;5320251;27;20138;-48
2023/12/23 10:42:52;;;;;;;6.15;1.70;;;10.20;99.90;;;10.07;100.00;100292.63;5320928;27;20071;-50
2023/12/23 10:45:24;;;;;;;7.03;1.70;;;10.20;99.90;;;10.03;100.00;100295.97;5315832;27;20038;-49
2023/12/23 10:47:59;;;;;;;7.40;2.40;;;10.10;99.90;;;10.04;100.00;100300.38;5311109;27;20062;-49
2023/12/23 10:50:33;;;;;;;5.45;1.55;;;;;;;10.10;100.00;100293.56;5319285;27;20051;-49